sensor_id;sensor_type;location;lat;lon;timestamp;P1;durP1;ratioP1;P2;durP2;ratioP2
37383;SDS011;23258;49.718;11.082;2023-02-12T00:00:06;19.67;;;13.60;;
37383;SDS011;23258;49.718;11.082;2023-02-12T00:02:42;17.87;;;13.53;;
37383;SDS011;23258;49.718;11.082;2023-02-12T00:05:14;17.13;;;13.63;;
37383;SDS011;23258;49.718;11.082;2023-02-12T00:07:44;19.27;;;13.83;;
37383;SDS011;23258;49.718;11.082;2023-02-12T00:10:14;19.50;;;14.03;;
37383;SDS011;23258;49.718;11.082;2023-02-12T00:12:43;19.50;;;14.30;;
37383;SDS011;23258;49.718;11.082;2023-02-12T00:15:13;17.87;;;14.43;;
37383;SDS011;23258;49.718;11.082;2023-02-12T00:17:42;28.73;;;16.07;;
37383;SDS011;23258;49.718;11.082;2023-02-12T00:20:15;24.10;;;16.90;;
37383;SDS011;23258;49.718;11.082;2023-02-12T00:22:44;21.20;;;15.13;;
37383;SDS011;23258;49.718;11.082;2023-02-12T00:25:14;24.60;;;16.30;;
37383;SDS011;23258;49.718;11.082;2023-02-12T00:27:44;23.20;;;16.13;;
37383;SDS011;23258;49.718;11.082;2023-02-12T00:30:14;25.80;;;16.37;;
37383;SDS011;23258;49.718;11.082;2023-02-12T00:32:43;22.53;;;16.20;;
37383;SDS011;23258;49.718;11.082;2023-02-12T00:35:16;21.43;;;16.07;;
37383;SDS011;23258;49.718;11.082;2023-02-12T00:37:48;19.77;;;15.13;;
37383;SDS011;23258;49.718;11.082;2023-02-12T00:40:18;24.77;;;16.27;;
37383;SDS011;23258;49.718;11.082;2023-02-12T00:42:48;21.83;;;16.27;;
37383;SDS011;23258;49.718;11.082;2023-02-12T00:45:17;20.73;;;14.57;;
37383;SDS011;23258;49.718;11.082;2023-02-12T00:47:47;22.70;;;14.67;;
37383;SDS011;23258;49.718;11.082;2023-02-12T00:50:19;21.33;;;15.20;;
37383;SDS011;23258;49.718;11.082;2023-02-12T00:52:49;22.67;;;15.03;;
37383;SDS011;23258;49.718;11.082;2023-02-12T00:55:19;21.37;;;13.83;;
37383;SDS011;23258;49.718;11.082;2023-02-12T00:57:48;23.30;;;14.10;;
37383;SDS011;23258;49.718;11.082;2023-02-12T01:00:18;20.47;;;14.07;;
37383;SDS011;23258;49.718;11.082;2023-02-12T01:02:48;22.33;;;14.67;;
37383;SDS011;23258;49.718;11.082;2023-02-12T01:05:20;21.77;;;14.97;;
37383;SDS011;23258;49.718;11.082;2023-02-12T01:07:51;19.33;;;12.87;;
37383;SDS011;23258;49.718;11.082;2023-02-12T01:10:21;20.90;;;14.27;;
37383;SDS011;23258;49.718;11.082;2023-02-12T01:12:51;21.13;;;15.70;;
37383;SDS011;23258;49.718;11.082;2023-02-12T01:15:21;28.40;;;16.43;;
37383;SDS011;23258;49.718;11.082;2023-02-12T01:17:50;20.77;;;14.07;;
37383;SDS011;23258;49.718;11.082;2023-02-12T01:20:23;18.40;;;14.17;;
37383;SDS011;23258;49.718;11.082;2023-02-12T01:22:53;21.73;;;15.23;;
37383;SDS011;23258;49.718;11.082;2023-02-12T01:25:23;24.87;;;15.07;;
37383;SDS011;23258;49.718;11.082;2023-02-12T01:27:54;22.47;;;14.60;;
37383;SDS011;23258;49.718;11.082;2023-02-12T01:30:23;20.70;;;14.43;;
37383;SDS011;23258;49.718;11.082;2023-02-12T01:32:53;20.73;;;15.50;;
37383;SDS011;23258;49.718;11.082;2023-02-12T01:35:26;22.52;;;14.63;;
37383;SDS011;23258;49.718;11.082;2023-02-12T01:37:56;20.08;;;15.10;;
37383;SDS011;23258;49.718;11.082;2023-02-12T01:40:25;22.53;;;14.47;;
37383;SDS011;23258;49.718;11.082;2023-02-12T01:42:58;21.20;;;15.05;;
37383;SDS011;23258;49.718;11.082;2023-02-12T01:45:43;20.85;;;13.70;;
37383;SDS011;23258;49.718;11.082;2023-02-12T01:48:13;21.45;;;14.50;;
37383;SDS011;23258;49.718;11.082;2023-02-12T01:50:47;22.00;;;13.80;;
37383;SDS011;23258;49.718;11.082;2023-02-12T01:53:17;15.88;;;13.15;;
37383;SDS011;23258;49.718;11.082;2023-02-12T01:55:48;21.63;;;14.63;;
37383;SDS011;23258;49.718;11.082;2023-02-12T01:58:19;21.23;;;14.63;;
37383;SDS011;23258;49.718;11.082;2023-02-12T02:00:49;25.97;;;15.67;;
37383;SDS011;23258;49.718;11.082;2023-02-12T02:03:19;21.13;;;15.27;;
37383;SDS011;23258;49.718;11.082;2023-02-12T02:05:53;18.13;;;13.57;;
37383;SDS011;23258;49.718;11.082;2023-02-12T02:08:24;21.73;;;14.13;;
37383;SDS011;23258;49.718;11.082;2023-02-12T02:10:54;19.90;;;13.43;;
37383;SDS011;23258;49.718;11.082;2023-02-12T02:13:24;19.75;;;12.80;;
37383;SDS011;23258;49.718;11.082;2023-02-12T02:16:09;18.55;;;12.77;;
37383;SDS011;23258;49.718;11.082;2023-02-12T02:18:45;16.75;;;13.32;;
37383;SDS011;23258;49.718;11.082;2023-02-12T02:24:13;17.70;;;12.60;;
37383;SDS011;23258;49.718;11.082;2023-02-12T02:26:50;19.13;;;12.77;;
37383;SDS011;23258;49.718;11.082;2023-02-12T02:29:28;19.77;;;13.63;;
37383;SDS011;23258;49.718;11.082;2023-02-12T02:32:03;21.35;;;14.15;;
37383;SDS011;23258;49.718;11.082;2023-02-12T02:34:36;15.60;;;12.73;;
37383;SDS011;23258;49.718;11.082;2023-02-12T02:37:07;20.27;;;12.80;;
37383;SDS011;23258;49.718;11.082;2023-02-12T02:39:42;19.75;;;13.35;;
37383;SDS011;23258;49.718;11.082;2023-02-12T02:42:16;17.02;;;12.85;;
37383;SDS011;23258;49.718;11.082;2023-02-12T02:44:47;21.10;;;14.85;;
37383;SDS011;23258;49.718;11.082;2023-02-12T02:47:22;15.95;;;12.65;;
37383;SDS011;23258;49.718;11.082;2023-02-12T02:49:54;19.23;;;13.32;;
37383;SDS011;23258;49.718;11.082;2023-02-12T02:52:26;17.23;;;12.48;;
37383;SDS011;23258;49.718;11.082;2023-02-12T02:54:57;21.95;;;13.55;;
37383;SDS011;23258;49.718;11.082;2023-02-12T02:57:30;17.73;;;13.30;;
37383;SDS011;23258;49.718;11.082;2023-02-12T03:00:03;19.85;;;12.65;;
37383;SDS011;23258;49.718;11.082;2023-02-12T03:02:39;20.33;;;13.45;;
37383;SDS011;23258;49.718;11.082;2023-02-12T03:05:12;17.67;;;12.82;;
37383;SDS011;23258;49.718;11.082;2023-02-12T03:07:44;24.77;;;14.73;;
37383;SDS011;23258;49.718;11.082;2023-02-12T03:10:16;22.42;;;15.02;;
37383;SDS011;23258;49.718;11.082;2023-02-12T03:12:47;18.87;;;14.00;;
37383;SDS011;23258;49.718;11.082;2023-02-12T03:15:21;20.17;;;15.15;;
37383;SDS011;23258;49.718;11.082;2023-02-12T03:17:55;27.07;;;15.70;;
37383;SDS011;23258;49.718;11.082;2023-02-12T03:20:27;20.48;;;13.98;;
37383;SDS011;23258;49.718;11.082;2023-02-12T03:22:57;21.43;;;14.90;;
37383;SDS011;23258;49.718;11.082;2023-02-12T03:25:30;19.10;;;13.60;;
37383;SDS011;23258;49.718;11.082;2023-02-12T03:28:03;26.77;;;15.15;;
37383;SDS011;23258;49.718;11.082;2023-02-12T03:30:44;25.30;;;16.10;;
37383;SDS011;23258;49.718;11.082;2023-02-12T03:33:21;24.58;;;15.30;;
37383;SDS011;23258;49.718;11.082;2023-02-12T03:35:53;21.48;;;16.02;;
37383;SDS011;23258;49.718;11.082;2023-02-12T03:38:29;20.30;;;14.67;;
37383;SDS011;23258;49.718;11.082;2023-02-12T03:41:02;25.38;;;15.38;;
37383;SDS011;23258;49.718;11.082;2023-02-12T03:43:35;21.93;;;15.07;;
37383;SDS011;23258;49.718;11.082;2023-02-12T03:46:10;22.20;;;13.98;;
37383;SDS011;23258;49.718;11.082;2023-02-12T03:48:46;19.70;;;13.23;;
37383;SDS011;23258;49.718;11.082;2023-02-12T03:51:21;21.27;;;13.00;;
37383;SDS011;23258;49.718;11.082;2023-02-12T03:53:51;21.35;;;13.77;;
37383;SDS011;23258;49.718;11.082;2023-02-12T03:56:23;20.02;;;14.60;;
37383;SDS011;23258;49.718;11.082;2023-02-12T03:58:53;21.92;;;14.73;;
37383;SDS011;23258;49.718;11.082;2023-02-12T04:01:23;18.58;;;13.70;;
37383;SDS011;23258;49.718;11.082;2023-02-12T04:03:55;20.48;;;13.88;;
37383;SDS011;23258;49.718;11.082;2023-02-12T04:06:26;22.52;;;14.82;;
37383;SDS011;23258;49.718;11.082;2023-02-12T04:08:57;20.30;;;14.50;;
37383;SDS011;23258;49.718;11.082;2023-02-12T04:11:29;20.30;;;13.35;;
37383;SDS011;23258;49.718;11.082;2023-02-12T04:14:12;17.47;;;13.30;;
37383;SDS011;23258;49.718;11.082;2023-02-12T04:16:44;22.73;;;15.07;;
37383;SDS011;23258;49.718;11.082;2023-02-12T04:19:19;19.95;;;14.27;;
37383;SDS011;23258;49.718;11.082;2023-02-12T04:21:58;20.17;;;14.00;;
37383;SDS011;23258;49.718;11.082;2023-02-12T04:24:34;18.52;;;13.65;;
37383;SDS011;23258;49.718;11.082;2023-02-12T04:27:08;19.90;;;13.73;;
37383;SDS011;23258;49.718;11.082;2023-02-12T04:29:40;17.13;;;12.40;;
37383;SDS011;23258;49.718;11.082;2023-02-12T04:32:14;16.75;;;12.65;;
37383;SDS011;23258;49.718;11.082;2023-02-12T04:34:49;18.67;;;14.02;;
37383;SDS011;23258;49.718;11.082;2023-02-12T04:37:20;23.13;;;15.25;;
37383;SDS011;23258;49.718;11.082;2023-02-12T04:39:51;18.50;;;13.13;;
37383;SDS011;23258;49.718;11.082;2023-02-12T04:42:21;17.05;;;13.63;;
37383;SDS011;23258;49.718;11.082;2023-02-12T04:44:51;23.20;;;14.27;;
37383;SDS011;23258;49.718;11.082;2023-02-12T04:47:20;17.35;;;13.43;;
37383;SDS011;23258;49.718;11.082;2023-02-12T04:49:53;20.08;;;14.98;;
37383;SDS011;23258;49.718;11.082;2023-02-12T04:52:22;23.83;;;15.07;;
37383;SDS011;23258;49.718;11.082;2023-02-12T04:54:52;20.43;;;14.27;;
37383;SDS011;23258;49.718;11.082;2023-02-12T04:57:22;23.77;;;14.87;;
37383;SDS011;23258;49.718;11.082;2023-02-12T04:59:51;22.35;;;14.80;;
37383;SDS011;23258;49.718;11.082;2023-02-12T05:02:21;24.47;;;15.03;;
37383;SDS011;23258;49.718;11.082;2023-02-12T05:04:53;17.60;;;13.60;;
37383;SDS011;23258;49.718;11.082;2023-02-12T05:07:23;23.00;;;14.43;;
37383;SDS011;23258;49.718;11.082;2023-02-12T05:09:52;19.90;;;14.33;;
37383;SDS011;23258;49.718;11.082;2023-02-12T05:12:22;21.42;;;13.82;;
37383;SDS011;23258;49.718;11.082;2023-02-12T05:14:52;18.33;;;13.50;;
37383;SDS011;23258;49.718;11.082;2023-02-12T05:17:22;22.53;;;14.80;;
37383;SDS011;23258;49.718;11.082;2023-02-12T05:19:54;23.58;;;15.00;;
37383;SDS011;23258;49.718;11.082;2023-02-12T05:22:24;23.52;;;15.20;;
37383;SDS011;23258;49.718;11.082;2023-02-12T05:24:53;18.90;;;14.80;;
37383;SDS011;23258;49.718;11.082;2023-02-12T05:27:23;17.97;;;14.07;;
37383;SDS011;23258;49.718;11.082;2023-02-12T05:29:52;19.60;;;14.73;;
37383;SDS011;23258;49.718;11.082;2023-02-12T05:32:22;20.17;;;14.73;;
37383;SDS011;23258;49.718;11.082;2023-02-12T05:34:54;22.10;;;15.38;;
37383;SDS011;23258;49.718;11.082;2023-02-12T05:37:24;20.15;;;14.02;;
37383;SDS011;23258;49.718;11.082;2023-02-12T05:39:53;21.52;;;15.77;;
37383;SDS011;23258;49.718;11.082;2023-02-12T05:42:23;20.33;;;15.67;;
37383;SDS011;23258;49.718;11.082;2023-02-12T05:44:52;23.17;;;14.20;;
37383;SDS011;23258;49.718;11.082;2023-02-12T05:47:22;23.75;;;15.68;;
37383;SDS011;23258;49.718;11.082;2023-02-12T05:49:54;22.20;;;16.27;;
37383;SDS011;23258;49.718;11.082;2023-02-12T05:52:23;24.43;;;15.20;;
37383;SDS011;23258;49.718;11.082;2023-02-12T05:54:53;25.02;;;16.50;;
37383;SDS011;23258;49.718;11.082;2023-02-12T05:57:22;21.88;;;15.60;;
37383;SDS011;23258;49.718;11.082;2023-02-12T05:59:52;24.50;;;15.60;;
37383;SDS011;23258;49.718;11.082;2023-02-12T06:02:21;20.02;;;14.73;;
37383;SDS011;23258;49.718;11.082;2023-02-12T06:04:54;23.70;;;16.40;;
37383;SDS011;23258;49.718;11.082;2023-02-12T06:07:23;22.37;;;15.63;;
37383;SDS011;23258;49.718;11.082;2023-02-12T06:09:53;25.45;;;17.45;;
37383;SDS011;23258;49.718;11.082;2023-02-12T06:12:23;27.95;;;16.63;;
37383;SDS011;23258;49.718;11.082;2023-02-12T06:14:52;21.75;;;16.45;;
37383;SDS011;23258;49.718;11.082;2023-02-12T06:17:22;26.30;;;15.82;;
37383;SDS011;23258;49.718;11.082;2023-02-12T06:19:54;26.23;;;16.13;;
37383;SDS011;23258;49.718;11.082;2023-02-12T06:22:26;23.30;;;15.23;;
37383;SDS011;23258;49.718;11.082;2023-02-12T06:24:56;26.13;;;15.98;;
37383;SDS011;23258;49.718;11.082;2023-02-12T06:27:25;20.07;;;15.23;;
37383;SDS011;23258;49.718;11.082;2023-02-12T06:29:55;24.98;;;15.85;;
37383;SDS011;23258;49.718;11.082;2023-02-12T06:32:24;22.23;;;14.73;;
37383;SDS011;23258;49.718;11.082;2023-02-12T06:34:57;23.38;;;14.63;;
37383;SDS011;23258;49.718;11.082;2023-02-12T06:37:26;27.27;;;16.42;;
37383;SDS011;23258;49.718;11.082;2023-02-12T06:39:56;20.15;;;15.15;;
37383;SDS011;23258;49.718;11.082;2023-02-12T06:42:25;22.98;;;14.65;;
37383;SDS011;23258;49.718;11.082;2023-02-12T06:44:55;21.73;;;15.20;;
37383;SDS011;23258;49.718;11.082;2023-02-12T06:47:25;28.10;;;16.83;;
37383;SDS011;23258;49.718;11.082;2023-02-12T06:49:58;25.17;;;15.07;;
37383;SDS011;23258;49.718;11.082;2023-02-12T06:52:27;24.02;;;15.38;;
37383;SDS011;23258;49.718;11.082;2023-02-12T06:54:57;22.33;;;15.73;;
37383;SDS011;23258;49.718;11.082;2023-02-12T06:57:27;21.77;;;15.73;;
37383;SDS011;23258;49.718;11.082;2023-02-12T06:59:57;19.60;;;13.98;;
37383;SDS011;23258;49.718;11.082;2023-02-12T07:02:26;24.23;;;16.02;;
37383;SDS011;23258;49.718;11.082;2023-02-12T07:04:59;22.33;;;14.90;;
37383;SDS011;23258;49.718;11.082;2023-02-12T07:07:28;22.40;;;14.83;;
37383;SDS011;23258;49.718;11.082;2023-02-12T07:09:58;20.93;;;14.37;;
37383;SDS011;23258;49.718;11.082;2023-02-12T07:12:27;21.15;;;14.05;;
37383;SDS011;23258;49.718;11.082;2023-02-12T07:14:57;21.88;;;15.27;;
37383;SDS011;23258;49.718;11.082;2023-02-12T07:17:28;20.63;;;14.60;;
37383;SDS011;23258;49.718;11.082;2023-02-12T07:20:00;21.55;;;14.80;;
37383;SDS011;23258;49.718;11.082;2023-02-12T07:22:29;22.20;;;14.30;;
37383;SDS011;23258;49.718;11.082;2023-02-12T07:24:59;25.23;;;15.90;;
37383;SDS011;23258;49.718;11.082;2023-02-12T07:27:29;24.02;;;16.02;;
37383;SDS011;23258;49.718;11.082;2023-02-12T07:29:58;26.25;;;16.70;;
37383;SDS011;23258;49.718;11.082;2023-02-12T07:32:28;26.95;;;17.45;;
37383;SDS011;23258;49.718;11.082;2023-02-12T07:35:00;24.83;;;16.67;;
37383;SDS011;23258;49.718;11.082;2023-02-12T07:37:29;25.38;;;18.15;;
37383;SDS011;23258;49.718;11.082;2023-02-12T07:39:59;29.13;;;18.70;;
37383;SDS011;23258;49.718;11.082;2023-02-12T07:42:28;23.88;;;18.17;;
37383;SDS011;23258;49.718;11.082;2023-02-12T07:45:04;27.27;;;19.83;;
37383;SDS011;23258;49.718;11.082;2023-02-12T07:47:33;22.38;;;16.80;;
37383;SDS011;23258;49.718;11.082;2023-02-12T07:50:07;23.45;;;16.17;;
37383;SDS011;23258;49.718;11.082;2023-02-12T07:52:37;22.75;;;16.35;;
37383;SDS011;23258;49.718;11.082;2023-02-12T07:55:07;24.08;;;16.58;;
37383;SDS011;23258;49.718;11.082;2023-02-12T07:57:36;24.98;;;19.10;;
37383;SDS011;23258;49.718;11.082;2023-02-12T08:00:06;22.60;;;16.15;;
37383;SDS011;23258;49.718;11.082;2023-02-12T08:02:39;29.55;;;17.17;;
37383;SDS011;23258;49.718;11.082;2023-02-12T08:05:11;21.67;;;15.68;;
37383;SDS011;23258;49.718;11.082;2023-02-12T08:07:41;22.23;;;15.73;;
37383;SDS011;23258;49.718;11.082;2023-02-12T08:10:10;26.77;;;17.33;;
37383;SDS011;23258;49.718;11.082;2023-02-12T08:12:40;28.35;;;18.63;;
37383;SDS011;23258;49.718;11.082;2023-02-12T08:15:09;20.65;;;15.75;;
37383;SDS011;23258;49.718;11.082;2023-02-12T08:17:39;24.92;;;17.05;;
37383;SDS011;23258;49.718;11.082;2023-02-12T08:20:11;24.77;;;16.88;;
37383;SDS011;23258;49.718;11.082;2023-02-12T08:22:41;22.15;;;16.40;;
37383;SDS011;23258;49.718;11.082;2023-02-12T08:25:10;22.02;;;15.40;;
37383;SDS011;23258;49.718;11.082;2023-02-12T08:27:40;21.42;;;15.25;;
37383;SDS011;23258;49.718;11.082;2023-02-12T08:30:10;26.27;;;16.00;;
37383;SDS011;23258;49.718;11.082;2023-02-12T08:32:41;23.63;;;15.82;;
37383;SDS011;23258;49.718;11.082;2023-02-12T08:35:13;23.10;;;15.63;;
37383;SDS011;23258;49.718;11.082;2023-02-12T08:37:43;27.70;;;16.88;;
37383;SDS011;23258;49.718;11.082;2023-02-12T08:40:12;24.10;;;16.58;;
37383;SDS011;23258;49.718;11.082;2023-02-12T08:42:42;27.85;;;16.55;;
37383;SDS011;23258;49.718;11.082;2023-02-12T08:45:11;24.83;;;16.83;;
37383;SDS011;23258;49.718;11.082;2023-02-12T08:47:41;28.10;;;16.92;;
37383;SDS011;23258;49.718;11.082;2023-02-12T08:50:13;25.52;;;16.30;;
37383;SDS011;23258;49.718;11.082;2023-02-12T08:52:43;33.00;;;19.85;;
37383;SDS011;23258;49.718;11.082;2023-02-12T08:55:12;27.52;;;16.67;;
37383;SDS011;23258;49.718;11.082;2023-02-12T08:57:42;26.40;;;17.05;;
37383;SDS011;23258;49.718;11.082;2023-02-12T09:00:12;29.02;;;17.77;;
37383;SDS011;23258;49.718;11.082;2023-02-12T09:02:41;24.35;;;18.02;;
37383;SDS011;23258;49.718;11.082;2023-02-12T09:05:13;27.60;;;17.42;;
37383;SDS011;23258;49.718;11.082;2023-02-12T09:07:43;26.45;;;18.13;;
37383;SDS011;23258;49.718;11.082;2023-02-12T09:10:12;24.90;;;17.75;;
37383;SDS011;23258;49.718;11.082;2023-02-12T09:12:42;25.58;;;17.27;;
37383;SDS011;23258;49.718;11.082;2023-02-12T09:15:12;26.92;;;17.50;;
37383;SDS011;23258;49.718;11.082;2023-02-12T09:17:41;26.60;;;17.67;;
37383;SDS011;23258;49.718;11.082;2023-02-12T09:20:14;35.63;;;19.63;;
37383;SDS011;23258;49.718;11.082;2023-02-12T09:22:43;28.35;;;18.42;;
37383;SDS011;23258;49.718;11.082;2023-02-12T09:25:13;32.10;;;19.20;;
37383;SDS011;23258;49.718;11.082;2023-02-12T09:27:42;27.25;;;18.98;;
37383;SDS011;23258;49.718;11.082;2023-02-12T09:30:12;29.42;;;16.73;;
37383;SDS011;23258;49.718;11.082;2023-02-12T09:32:42;29.33;;;17.70;;
37383;SDS011;23258;49.718;11.082;2023-02-12T09:35:14;32.17;;;20.60;;
37383;SDS011;23258;49.718;11.082;2023-02-12T09:37:44;37.88;;;23.35;;
37383;SDS011;23258;49.718;11.082;2023-02-12T09:40:15;31.17;;;19.02;;
37383;SDS011;23258;49.718;11.082;2023-02-12T09:42:55;27.10;;;17.02;;
37383;SDS011;23258;49.718;11.082;2023-02-12T09:45:29;29.77;;;17.80;;
37383;SDS011;23258;49.718;11.082;2023-02-12T09:48:03;31.52;;;17.65;;
37383;SDS011;23258;49.718;11.082;2023-02-12T09:50:39;27.90;;;17.20;;
37383;SDS011;23258;49.718;11.082;2023-02-12T09:53:11;25.38;;;16.63;;
37383;SDS011;23258;49.718;11.082;2023-02-12T09:55:43;30.48;;;17.73;;
37383;SDS011;23258;49.718;11.082;2023-02-12T09:58:13;33.63;;;17.73;;
37383;SDS011;23258;49.718;11.082;2023-02-12T10:00:43;33.33;;;17.83;;
37383;SDS011;23258;49.718;11.082;2023-02-12T10:03:13;26.33;;;17.10;;
37383;SDS011;23258;49.718;11.082;2023-02-12T10:05:47;33.00;;;16.65;;
37383;SDS011;23258;49.718;11.082;2023-02-12T10:08:27;28.08;;;17.65;;
37383;SDS011;23258;49.718;11.082;2023-02-12T10:11:00;36.00;;;18.50;;
37383;SDS011;23258;49.718;11.082;2023-02-12T10:13:38;25.00;;;17.75;;
37383;SDS011;23258;49.718;11.082;2023-02-12T10:16:13;30.70;;;17.05;;
37383;SDS011;23258;49.718;11.082;2023-02-12T10:18:51;24.17;;;15.25;;
37383;SDS011;23258;49.718;11.082;2023-02-12T10:21:29;25.80;;;17.08;;
37383;SDS011;23258;49.718;11.082;2023-02-12T10:24:10;26.42;;;16.63;;
37383;SDS011;23258;49.718;11.082;2023-02-12T10:26:46;26.45;;;16.30;;
37383;SDS011;23258;49.718;11.082;2023-02-12T10:29:17;31.92;;;17.35;;
37383;SDS011;23258;49.718;11.082;2023-02-12T10:31:50;29.60;;;16.65;;
37383;SDS011;23258;49.718;11.082;2023-02-12T10:34:41;26.77;;;14.82;;
37383;SDS011;23258;49.718;11.082;2023-02-12T10:37:14;25.98;;;14.80;;
37383;SDS011;23258;49.718;11.082;2023-02-12T10:39:47;21.65;;;12.27;;
37383;SDS011;23258;49.718;11.082;2023-02-12T10:42:20;24.50;;;14.02;;
37383;SDS011;23258;49.718;11.082;2023-02-12T10:44:53;24.08;;;14.00;;
37383;SDS011;23258;49.718;11.082;2023-02-12T10:47:23;22.63;;;13.60;;
37383;SDS011;23258;49.718;11.082;2023-02-12T10:49:55;19.60;;;12.02;;
37383;SDS011;23258;49.718;11.082;2023-02-12T10:52:32;23.52;;;12.98;;
37383;SDS011;23258;49.718;11.082;2023-02-12T10:55:02;23.70;;;13.10;;
37383;SDS011;23258;49.718;11.082;2023-02-12T10:57:51;22.70;;;13.45;;
37383;SDS011;23258;49.718;11.082;2023-02-12T11:00:24;19.38;;;12.63;;
37383;SDS011;23258;49.718;11.082;2023-02-12T11:03:05;19.25;;;11.45;;
37383;SDS011;23258;49.718;11.082;2023-02-12T11:05:35;22.02;;;13.63;;
37383;SDS011;23258;49.718;11.082;2023-02-12T11:08:10;27.20;;;13.52;;
37383;SDS011;23258;49.718;11.082;2023-02-12T11:10:54;29.48;;;14.63;;
37383;SDS011;23258;49.718;11.082;2023-02-12T11:13:24;18.38;;;11.25;;
37383;SDS011;23258;49.718;11.082;2023-02-12T11:15:54;16.25;;;10.85;;
37383;SDS011;23258;49.718;11.082;2023-02-12T11:18:25;20.60;;;12.70;;
37383;SDS011;23258;49.718;11.082;2023-02-12T11:20:55;26.48;;;13.40;;
37383;SDS011;23258;49.718;11.082;2023-02-12T11:23:29;20.50;;;12.68;;
37383;SDS011;23258;49.718;11.082;2023-02-12T11:25:59;20.55;;;13.82;;
37383;SDS011;23258;49.718;11.082;2023-02-12T11:28:30;14.50;;;9.82;;
37383;SDS011;23258;49.718;11.082;2023-02-12T11:31:00;18.08;;;11.00;;
37383;SDS011;23258;49.718;11.082;2023-02-12T11:33:31;18.80;;;10.95;;
37383;SDS011;23258;49.718;11.082;2023-02-12T11:36:03;18.63;;;11.80;;
37383;SDS011;23258;49.718;11.082;2023-02-12T11:38:38;21.17;;;11.48;;
37383;SDS011;23258;49.718;11.082;2023-02-12T11:41:17;26.00;;;13.60;;
37383;SDS011;23258;49.718;11.082;2023-02-12T11:43:48;14.48;;;10.05;;
37383;SDS011;23258;49.718;11.082;2023-02-12T11:46:18;15.90;;;9.27;;
37383;SDS011;23258;49.718;11.082;2023-02-12T11:48:48;16.85;;;9.10;;
37383;SDS011;23258;49.718;11.082;2023-02-12T11:51:20;17.83;;;10.18;;
37383;SDS011;23258;49.718;11.082;2023-02-12T11:53:53;21.08;;;10.13;;
37383;SDS011;23258;49.718;11.082;2023-02-12T11:56:24;14.80;;;10.55;;
37383;SDS011;23258;49.718;11.082;2023-02-12T11:59:15;15.65;;;9.70;;
37383;SDS011;23258;49.718;11.082;2023-02-12T12:01:47;15.27;;;10.43;;
37383;SDS011;23258;49.718;11.082;2023-02-12T12:04:20;14.57;;;8.68;;
37383;SDS011;23258;49.718;11.082;2023-02-12T12:06:52;14.63;;;9.55;;
37383;SDS011;23258;49.718;11.082;2023-02-12T12:09:29;14.60;;;9.88;;
37383;SDS011;23258;49.718;11.082;2023-02-12T12:12:03;15.70;;;10.07;;
37383;SDS011;23258;49.718;11.082;2023-02-12T12:14:38;16.20;;;10.75;;
37383;SDS011;23258;49.718;11.082;2023-02-12T12:17:23;21.08;;;11.65;;
37383;SDS011;23258;49.718;11.082;2023-02-12T12:20:09;20.35;;;11.48;;
37383;SDS011;23258;49.718;11.082;2023-02-12T12:22:41;21.75;;;12.80;;
37383;SDS011;23258;49.718;11.082;2023-02-12T12:25:15;16.50;;;10.63;;
37383;SDS011;23258;49.718;11.082;2023-02-12T12:27:52;14.25;;;10.30;;
37383;SDS011;23258;49.718;11.082;2023-02-12T12:30:39;17.20;;;10.95;;
37383;SDS011;23258;49.718;11.082;2023-02-12T12:33:13;11.88;;;8.93;;
37383;SDS011;23258;49.718;11.082;2023-02-12T12:35:44;18.00;;;10.27;;
37383;SDS011;23258;49.718;11.082;2023-02-12T12:38:18;19.73;;;11.10;;
37383;SDS011;23258;49.718;11.082;2023-02-12T12:40:55;18.52;;;10.70;;
37383;SDS011;23258;49.718;11.082;2023-02-12T12:43:32;14.68;;;10.75;;
37383;SDS011;23258;49.718;11.082;2023-02-12T12:46:10;15.95;;;11.45;;
37383;SDS011;23258;49.718;11.082;2023-02-12T12:48:47;14.70;;;10.38;;
37383;SDS011;23258;49.718;11.082;2023-02-12T12:51:27;16.70;;;11.02;;
37383;SDS011;23258;49.718;11.082;2023-02-12T12:54:02;18.83;;;12.10;;
37383;SDS011;23258;49.718;11.082;2023-02-12T12:56:44;16.67;;;11.20;;
37383;SDS011;23258;49.718;11.082;2023-02-12T12:59:20;18.17;;;10.98;;
37383;SDS011;23258;49.718;11.082;2023-02-12T13:02:04;15.07;;;12.10;;
37383;SDS011;23258;49.718;11.082;2023-02-12T13:04:43;24.90;;;13.50;;
37383;SDS011;23258;49.718;11.082;2023-02-12T13:07:24;22.80;;;13.30;;
37383;SDS011;23258;49.718;11.082;2023-02-12T13:12:48;17.98;;;11.75;;
37383;SDS011;23258;49.718;11.082;2023-02-12T13:15:24;21.05;;;12.25;;
37383;SDS011;23258;49.718;11.082;2023-02-12T13:17:56;17.67;;;10.70;;
37383;SDS011;23258;49.718;11.082;2023-02-12T13:20:32;19.85;;;11.80;;
37383;SDS011;23258;49.718;11.082;2023-02-12T13:23:05;16.77;;;12.88;;
37383;SDS011;23258;49.718;11.082;2023-02-12T13:25:41;15.88;;;12.50;;
37383;SDS011;23258;49.718;11.082;2023-02-12T13:28:18;15.40;;;10.73;;
37383;SDS011;23258;49.718;11.082;2023-02-12T13:30:51;20.25;;;11.35;;
37383;SDS011;23258;49.718;11.082;2023-02-12T13:33:23;19.20;;;11.80;;
37383;SDS011;23258;49.718;11.082;2023-02-12T13:35:54;22.33;;;13.80;;
37383;SDS011;23258;49.718;11.082;2023-02-12T13:38:26;22.92;;;13.48;;
37383;SDS011;23258;49.718;11.082;2023-02-12T13:40:57;21.35;;;12.93;;
37383;SDS011;23258;49.718;11.082;2023-02-12T13:43:38;20.77;;;12.27;;
37383;SDS011;23258;49.718;11.082;2023-02-12T13:46:13;21.25;;;13.75;;
37383;SDS011;23258;49.718;11.082;2023-02-12T13:48:48;23.25;;;14.23;;
37383;SDS011;23258;49.718;11.082;2023-02-12T13:51:20;23.33;;;13.52;;
37383;SDS011;23258;49.718;11.082;2023-02-12T13:53:56;20.33;;;12.73;;
37383;SDS011;23258;49.718;11.082;2023-02-12T13:56:31;20.10;;;12.52;;
37383;SDS011;23258;49.718;11.082;2023-02-12T13:59:19;17.27;;;12.30;;
37383;SDS011;23258;49.718;11.082;2023-02-12T14:01:56;21.52;;;14.13;;
37383;SDS011;23258;49.718;11.082;2023-02-12T14:04:28;18.73;;;12.68;;
37383;SDS011;23258;49.718;11.082;2023-02-12T14:07:00;22.08;;;13.85;;
37383;SDS011;23258;49.718;11.082;2023-02-12T14:09:34;22.88;;;15.30;;
37383;SDS011;23258;49.718;11.082;2023-02-12T14:12:04;18.60;;;12.60;;
37383;SDS011;23258;49.718;11.082;2023-02-12T14:14:38;15.02;;;11.27;;
37383;SDS011;23258;49.718;11.082;2023-02-12T14:19:54;21.15;;;13.98;;
37383;SDS011;23258;49.718;11.082;2023-02-12T14:27:53;20.55;;;12.73;;
37383;SDS011;23258;49.718;11.082;2023-02-12T14:30:28;16.90;;;12.63;;
37383;SDS011;23258;49.718;11.082;2023-02-12T14:35:45;20.30;;;14.45;;
37383;SDS011;23258;49.718;11.082;2023-02-12T14:41:13;14.85;;;11.93;;
37383;SDS011;23258;49.718;11.082;2023-02-12T14:46:49;16.48;;;11.07;;
37383;SDS011;23258;49.718;11.082;2023-02-12T14:49:21;20.13;;;13.57;;
37383;SDS011;23258;49.718;11.082;2023-02-12T14:51:53;18.77;;;11.82;;
37383;SDS011;23258;49.718;11.082;2023-02-12T14:54:25;16.85;;;13.27;;
37383;SDS011;23258;49.718;11.082;2023-02-12T14:56:57;14.68;;;10.05;;
37383;SDS011;23258;49.718;11.082;2023-02-12T14:59:29;14.35;;;10.63;;